sensor_id;sensor_type;location;lat;lon;timestamp;P1;durP1;ratioP1;P2;durP2;ratioP2
41887;SDS011;63122;52.424;13.458;2022-10-12T00:02:24;17.03;;;7.07;;
41887;SDS011;63122;52.424;13.458;2022-10-12T00:04:54;23.17;;;7.07;;
41887;SDS011;63122;52.424;13.458;2022-10-12T00:07:24;15.63;;;6.23;;
41887;SDS011;63122;52.424;13.458;2022-10-12T00:09:54;18.83;;;6.40;;
41887;SDS011;63122;52.424;13.458;2022-10-12T00:12:24;13.47;;;6.17;;
41887;SDS011;63122;52.424;13.458;2022-10-12T00:14:54;19.97;;;6.93;;
41887;SDS011;63122;52.424;13.458;2022-10-12T00:17:26;17.87;;;6.30;;
41887;SDS011;63122;52.424;13.458;2022-10-12T00:19:56;11.93;;;5.90;;
41887;SDS011;63122;52.424;13.458;2022-10-12T00:22:27;11.80;;;5.23;;
41887;SDS011;63122;52.424;13.458;2022-10-12T00:24:57;14.33;;;6.37;;
41887;SDS011;63122;52.424;13.458;2022-10-12T00:27:27;17.20;;;6.60;;
41887;SDS011;63122;52.424;13.458;2022-10-12T00:29:57;15.13;;;5.90;;
41887;SDS011;63122;52.424;13.458;2022-10-12T00:32:30;20.40;;;6.57;;
41887;SDS011;63122;52.424;13.458;2022-10-12T00:35:00;15.30;;;5.50;;
41887;SDS011;63122;52.424;13.458;2022-10-12T00:37:30;14.33;;;5.93;;
41887;SDS011;63122;52.424;13.458;2022-10-12T00:40:00;14.80;;;5.87;;
41887;SDS011;63122;52.424;13.458;2022-10-12T00:42:30;18.20;;;6.33;;
41887;SDS011;63122;52.424;13.458;2022-10-12T00:45:00;16.20;;;5.83;;
41887;SDS011;63122;52.424;13.458;2022-10-12T00:47:33;13.37;;;5.00;;
41887;SDS011;63122;52.424;13.458;2022-10-12T00:50:07;16.77;;;5.63;;
41887;SDS011;63122;52.424;13.458;2022-10-12T00:52:42;13.37;;;5.23;;
41887;SDS011;63122;52.424;13.458;2022-10-12T00:55:17;16.07;;;5.63;;
41887;SDS011;63122;52.424;13.458;2022-10-12T00:57:50;19.03;;;5.67;;
41887;SDS011;63122;52.424;13.458;2022-10-12T01:00:23;16.90;;;5.63;;
41887;SDS011;63122;52.424;13.458;2022-10-12T01:02:56;14.57;;;5.97;;
41887;SDS011;63122;52.424;13.458;2022-10-12T01:05:26;22.27;;;7.37;;
41887;SDS011;63122;52.424;13.458;2022-10-12T01:07:57;16.87;;;6.77;;
41887;SDS011;63122;52.424;13.458;2022-10-12T01:10:29;19.13;;;6.87;;
41887;SDS011;63122;52.424;13.458;2022-10-12T01:12:59;22.97;;;6.80;;
41887;SDS011;63122;52.424;13.458;2022-10-12T01:15:32;18.60;;;5.87;;
41887;SDS011;63122;52.424;13.458;2022-10-12T01:18:08;15.03;;;5.90;;
41887;SDS011;63122;52.424;13.458;2022-10-12T01:20:56;16.10;;;6.37;;
41887;SDS011;63122;52.424;13.458;2022-10-12T01:26:40;15.97;;;5.27;;
41887;SDS011;63122;52.424;13.458;2022-10-12T01:29:29;16.37;;;4.47;;
41887;SDS011;63122;52.424;13.458;2022-10-12T01:32:15;15.67;;;5.30;;
41887;SDS011;63122;52.424;13.458;2022-10-12T01:34:52;16.20;;;4.83;;
41887;SDS011;63122;52.424;13.458;2022-10-12T01:37:30;12.53;;;4.20;;
41887;SDS011;63122;52.424;13.458;2022-10-12T01:40:10;15.87;;;5.03;;
41887;SDS011;63122;52.424;13.458;2022-10-12T01:42:44;16.40;;;4.53;;
41887;SDS011;63122;52.424;13.458;2022-10-12T01:45:16;15.93;;;4.63;;
41887;SDS011;63122;52.424;13.458;2022-10-12T01:47:50;12.47;;;5.13;;
41887;SDS011;63122;52.424;13.458;2022-10-12T01:50:23;15.57;;;5.67;;
41887;SDS011;63122;52.424;13.458;2022-10-12T01:53:03;14.83;;;5.13;;
41887;SDS011;63122;52.424;13.458;2022-10-12T01:55:40;16.07;;;5.03;;
41887;SDS011;63122;52.424;13.458;2022-10-12T01:58:17;20.50;;;6.03;;
41887;SDS011;63122;52.424;13.458;2022-10-12T02:00:59;12.17;;;4.87;;
41887;SDS011;63122;52.424;13.458;2022-10-12T02:03:40;11.47;;;5.20;;
41887;SDS011;63122;52.424;13.458;2022-10-12T02:06:17;14.07;;;4.67;;
41887;SDS011;63122;52.424;13.458;2022-10-12T02:08:53;14.63;;;4.47;;
41887;SDS011;63122;52.424;13.458;2022-10-12T02:11:28;12.53;;;4.83;;
41887;SDS011;63122;52.424;13.458;2022-10-12T02:14:05;14.27;;;5.23;;
41887;SDS011;63122;52.424;13.458;2022-10-12T02:16:39;16.53;;;4.97;;
41887;SDS011;63122;52.424;13.458;2022-10-12T02:19:17;14.63;;;5.00;;
41887;SDS011;63122;52.424;13.458;2022-10-12T02:21:52;14.17;;;4.63;;
41887;SDS011;63122;52.424;13.458;2022-10-12T02:24:24;18.87;;;5.40;;
41887;SDS011;63122;52.424;13.458;2022-10-12T02:26:57;13.10;;;5.07;;
41887;SDS011;63122;52.424;13.458;2022-10-12T02:29:30;12.73;;;5.33;;
41887;SDS011;63122;52.424;13.458;2022-10-12T02:32:07;11.67;;;5.07;;
41887;SDS011;63122;52.424;13.458;2022-10-12T02:34:46;13.90;;;5.10;;
41887;SDS011;63122;52.424;13.458;2022-10-12T02:37:27;12.47;;;5.23;;
41887;SDS011;63122;52.424;13.458;2022-10-12T02:40:05;15.43;;;5.33;;
41887;SDS011;63122;52.424;13.458;2022-10-12T02:42:41;17.47;;;6.67;;
41887;SDS011;63122;52.424;13.458;2022-10-12T02:45:36;12.17;;;5.90;;
41887;SDS011;63122;52.424;13.458;2022-10-12T02:48:10;13.83;;;5.80;;
41887;SDS011;63122;52.424;13.458;2022-10-12T02:50:47;15.00;;;5.63;;
41887;SDS011;63122;52.424;13.458;2022-10-12T02:53:20;16.77;;;6.40;;
41887;SDS011;63122;52.424;13.458;2022-10-12T02:55:53;16.00;;;6.70;;
41887;SDS011;63122;52.424;13.458;2022-10-12T02:58:29;15.93;;;5.67;;
41887;SDS011;63122;52.424;13.458;2022-10-12T03:00:59;14.73;;;5.67;;
41887;SDS011;63122;52.424;13.458;2022-10-12T03:03:29;14.03;;;5.43;;
41887;SDS011;63122;52.424;13.458;2022-10-12T03:06:02;18.03;;;6.27;;
41887;SDS011;63122;52.424;13.458;2022-10-12T03:08:32;14.23;;;5.00;;
41887;SDS011;63122;52.424;13.458;2022-10-12T03:11:02;19.53;;;5.73;;
41887;SDS011;63122;52.424;13.458;2022-10-12T03:13:33;15.70;;;5.67;;
41887;SDS011;63122;52.424;13.458;2022-10-12T03:16:03;15.80;;;6.30;;
41887;SDS011;63122;52.424;13.458;2022-10-12T03:18:35;16.77;;;6.23;;
41887;SDS011;63122;52.424;13.458;2022-10-12T03:21:08;22.93;;;10.33;;
41887;SDS011;63122;52.424;13.458;2022-10-12T03:23:38;13.97;;;5.63;;
41887;SDS011;63122;52.424;13.458;2022-10-12T03:26:09;14.67;;;5.30;;
41887;SDS011;63122;52.424;13.458;2022-10-12T03:28:38;14.67;;;5.73;;
41887;SDS011;63122;52.424;13.458;2022-10-12T03:31:09;19.30;;;5.87;;
41887;SDS011;63122;52.424;13.458;2022-10-12T03:33:39;13.70;;;5.77;;
41887;SDS011;63122;52.424;13.458;2022-10-12T03:36:11;14.60;;;5.77;;
41887;SDS011;63122;52.424;13.458;2022-10-12T03:38:41;16.87;;;4.90;;
41887;SDS011;63122;52.424;13.458;2022-10-12T03:41:11;17.33;;;5.03;;
41887;SDS011;63122;52.424;13.458;2022-10-12T03:43:42;16.80;;;5.50;;
41887;SDS011;63122;52.424;13.458;2022-10-12T03:46:12;17.30;;;5.23;;
41887;SDS011;63122;52.424;13.458;2022-10-12T03:48:43;21.40;;;5.83;;
41887;SDS011;63122;52.424;13.458;2022-10-12T03:51:16;19.70;;;5.33;;
41887;SDS011;63122;52.424;13.458;2022-10-12T03:53:46;15.53;;;5.37;;
41887;SDS011;63122;52.424;13.458;2022-10-12T03:56:16;12.33;;;5.63;;
41887;SDS011;63122;52.424;13.458;2022-10-12T03:58:46;12.47;;;5.60;;
41887;SDS011;63122;52.424;13.458;2022-10-12T04:01:16;15.07;;;5.60;;
41887;SDS011;63122;52.424;13.458;2022-10-12T04:03:46;16.93;;;6.70;;
41887;SDS011;63122;52.424;13.458;2022-10-12T04:06:19;15.83;;;7.77;;
41887;SDS011;63122;52.424;13.458;2022-10-12T04:08:49;14.23;;;6.90;;
41887;SDS011;63122;52.424;13.458;2022-10-12T04:11:19;14.17;;;6.77;;
41887;SDS011;63122;52.424;13.458;2022-10-12T04:13:49;16.43;;;6.97;;
41887;SDS011;63122;52.424;13.458;2022-10-12T04:16:19;19.97;;;6.23;;
41887;SDS011;63122;52.424;13.458;2022-10-12T04:18:54;17.37;;;6.50;;
41887;SDS011;63122;52.424;13.458;2022-10-12T04:21:27;12.90;;;5.93;;
41887;SDS011;63122;52.424;13.458;2022-10-12T04:24:00;10.13;;;5.23;;
41887;SDS011;63122;52.424;13.458;2022-10-12T04:26:30;12.47;;;5.83;;
41887;SDS011;63122;52.424;13.458;2022-10-12T04:29:00;12.93;;;5.40;;
41887;SDS011;63122;52.424;13.458;2022-10-12T04:31:30;15.13;;;5.20;;
41887;SDS011;63122;52.424;13.458;2022-10-12T04:34:00;13.80;;;5.17;;
41887;SDS011;63122;52.424;13.458;2022-10-12T04:36:33;14.83;;;5.53;;
41887;SDS011;63122;52.424;13.458;2022-10-12T04:39:03;9.47;;;5.07;;
41887;SDS011;63122;52.424;13.458;2022-10-12T04:41:37;9.80;;;5.30;;
41887;SDS011;63122;52.424;13.458;2022-10-12T04:44:08;12.80;;;5.27;;
41887;SDS011;63122;52.424;13.458;2022-10-12T04:46:38;16.47;;;5.87;;
41887;SDS011;63122;52.424;13.458;2022-10-12T04:49:08;15.70;;;5.47;;
41887;SDS011;63122;52.424;13.458;2022-10-12T04:51:40;14.87;;;6.27;;
41887;SDS011;63122;52.424;13.458;2022-10-12T04:54:11;11.93;;;5.27;;
41887;SDS011;63122;52.424;13.458;2022-10-12T04:56:41;16.00;;;5.03;;
41887;SDS011;63122;52.424;13.458;2022-10-12T04:59:14;15.83;;;5.40;;
41887;SDS011;63122;52.424;13.458;2022-10-12T05:01:44;12.33;;;5.20;;
41887;SDS011;63122;52.424;13.458;2022-10-12T05:04:14;12.57;;;5.50;;
41887;SDS011;63122;52.424;13.458;2022-10-12T05:09:24;15.07;;;5.30;;
41887;SDS011;63122;52.424;13.458;2022-10-12T05:11:55;15.47;;;5.63;;
41887;SDS011;63122;52.424;13.458;2022-10-12T05:14:24;15.23;;;5.80;;
41887;SDS011;63122;52.424;13.458;2022-10-12T05:17:01;14.70;;;5.90;;
41887;SDS011;63122;52.424;13.458;2022-10-12T05:19:31;19.60;;;6.87;;
41887;SDS011;63122;52.424;13.458;2022-10-12T05:22:04;13.80;;;5.87;;
41887;SDS011;63122;52.424;13.458;2022-10-12T05:24:34;16.53;;;5.23;;
41887;SDS011;63122;52.424;13.458;2022-10-12T05:27:04;17.20;;;5.73;;
41887;SDS011;63122;52.424;13.458;2022-10-12T05:29:34;11.27;;;4.63;;
41887;SDS011;63122;52.424;13.458;2022-10-12T05:32:04;13.87;;;4.90;;
41887;SDS011;63122;52.424;13.458;2022-10-12T05:34:34;10.90;;;4.67;;
41887;SDS011;63122;52.424;13.458;2022-10-12T05:37:06;15.60;;;5.17;;
41887;SDS011;63122;52.424;13.458;2022-10-12T05:39:36;14.93;;;5.40;;
41887;SDS011;63122;52.424;13.458;2022-10-12T05:42:06;13.33;;;5.70;;
41887;SDS011;63122;52.424;13.458;2022-10-12T05:44:36;12.33;;;5.40;;
41887;SDS011;63122;52.424;13.458;2022-10-12T05:47:06;15.70;;;5.30;;
41887;SDS011;63122;52.424;13.458;2022-10-12T05:49:36;18.43;;;5.20;;
41887;SDS011;63122;52.424;13.458;2022-10-12T05:52:09;13.67;;;5.13;;
41887;SDS011;63122;52.424;13.458;2022-10-12T05:54:39;12.83;;;5.63;;
41887;SDS011;63122;52.424;13.458;2022-10-12T05:57:10;17.10;;;5.53;;
41887;SDS011;63122;52.424;13.458;2022-10-12T05:59:41;16.27;;;5.17;;
41887;SDS011;63122;52.424;13.458;2022-10-12T06:02:12;18.60;;;6.37;;
41887;SDS011;63122;52.424;13.458;2022-10-12T06:04:43;13.10;;;4.87;;
41887;SDS011;63122;52.424;13.458;2022-10-12T06:07:17;14.70;;;5.20;;
41887;SDS011;63122;52.424;13.458;2022-10-12T06:09:47;17.57;;;5.17;;
41887;SDS011;63122;52.424;13.458;2022-10-12T06:12:18;15.83;;;5.20;;
41887;SDS011;63122;52.424;13.458;2022-10-12T06:14:48;16.70;;;5.60;;
41887;SDS011;63122;52.424;13.458;2022-10-12T06:17:19;16.10;;;4.77;;
41887;SDS011;63122;52.424;13.458;2022-10-12T06:19:49;19.13;;;6.33;;
41887;SDS011;63122;52.424;13.458;2022-10-12T06:22:22;20.07;;;5.57;;
41887;SDS011;63122;52.424;13.458;2022-10-12T06:24:52;14.60;;;5.60;;
41887;SDS011;63122;52.424;13.458;2022-10-12T06:27:22;12.90;;;5.57;;
41887;SDS011;63122;52.424;13.458;2022-10-12T06:29:52;16.33;;;4.90;;
41887;SDS011;63122;52.424;13.458;2022-10-12T06:32:23;12.60;;;4.80;;
41887;SDS011;63122;52.424;13.458;2022-10-12T06:34:53;18.70;;;5.50;;
41887;SDS011;63122;52.424;13.458;2022-10-12T06:37:29;14.03;;;5.60;;
41887;SDS011;63122;52.424;13.458;2022-10-12T06:40:24;14.80;;;5.57;;
41887;SDS011;63122;52.424;13.458;2022-10-12T06:42:54;15.50;;;6.00;;
41887;SDS011;63122;52.424;13.458;2022-10-12T06:45:28;14.70;;;5.63;;
41887;SDS011;63122;52.424;13.458;2022-10-12T06:47:59;16.13;;;4.90;;
41887;SDS011;63122;52.424;13.458;2022-10-12T06:50:29;16.67;;;5.97;;
41887;SDS011;63122;52.424;13.458;2022-10-12T06:53:02;14.93;;;5.40;;
41887;SDS011;63122;52.424;13.458;2022-10-12T06:55:32;17.27;;;6.00;;
41887;SDS011;63122;52.424;13.458;2022-10-12T06:58:02;20.77;;;5.37;;
41887;SDS011;63122;52.424;13.458;2022-10-12T07:00:32;17.33;;;5.90;;
41887;SDS011;63122;52.424;13.458;2022-10-12T07:03:02;21.30;;;6.40;;
41887;SDS011;63122;52.424;13.458;2022-10-12T07:09:36;21.37;;;5.27;;
41887;SDS011;63122;52.424;13.458;2022-10-12T07:12:06;15.77;;;5.77;;
41887;SDS011;63122;52.424;13.458;2022-10-12T07:14:36;21.93;;;5.30;;
41887;SDS011;63122;52.424;13.458;2022-10-12T07:17:07;19.40;;;6.00;;
41887;SDS011;63122;52.424;13.458;2022-10-12T07:19:37;18.90;;;5.70;;
41887;SDS011;63122;52.424;13.458;2022-10-12T07:22:07;18.90;;;6.50;;
41887;SDS011;63122;52.424;13.458;2022-10-12T07:24:40;18.53;;;6.63;;
41887;SDS011;63122;52.424;13.458;2022-10-12T07:27:10;21.57;;;5.90;;
41887;SDS011;63122;52.424;13.458;2022-10-12T07:29:45;14.33;;;5.50;;
41887;SDS011;63122;52.424;13.458;2022-10-12T07:32:20;19.43;;;6.40;;
41887;SDS011;63122;52.424;13.458;2022-10-12T07:34:50;17.83;;;5.23;;
41887;SDS011;63122;52.424;13.458;2022-10-12T07:37:20;14.20;;;6.43;;
41887;SDS011;63122;52.424;13.458;2022-10-12T07:40:01;17.93;;;5.80;;
41887;SDS011;63122;52.424;13.458;2022-10-12T07:42:33;14.03;;;5.73;;
41887;SDS011;63122;52.424;13.458;2022-10-12T07:45:23;20.77;;;6.77;;
41887;SDS011;63122;52.424;13.458;2022-10-12T07:47:54;19.90;;;5.90;;
41887;SDS011;63122;52.424;13.458;2022-10-12T07:50:24;26.90;;;6.63;;
41887;SDS011;63122;52.424;13.458;2022-10-12T07:52:54;23.90;;;6.60;;
41887;SDS011;63122;52.424;13.458;2022-10-12T07:55:27;24.37;;;6.70;;
41887;SDS011;63122;52.424;13.458;2022-10-12T07:57:58;21.27;;;6.50;;
41887;SDS011;63122;52.424;13.458;2022-10-12T08:00:29;18.00;;;6.57;;
41887;SDS011;63122;52.424;13.458;2022-10-12T08:02:59;21.43;;;7.90;;
41887;SDS011;63122;52.424;13.458;2022-10-12T08:05:29;19.57;;;7.30;;
41887;SDS011;63122;52.424;13.458;2022-10-12T08:07:59;22.70;;;6.77;;
41887;SDS011;63122;52.424;13.458;2022-10-12T08:10:32;17.00;;;6.13;;
41887;SDS011;63122;52.424;13.458;2022-10-12T08:13:02;15.77;;;5.47;;
41887;SDS011;63122;52.424;13.458;2022-10-12T08:15:32;20.33;;;6.13;;
41887;SDS011;63122;52.424;13.458;2022-10-12T08:18:02;16.87;;;5.70;;
41887;SDS011;63122;52.424;13.458;2022-10-12T08:20:32;15.63;;;6.13;;
41887;SDS011;63122;52.424;13.458;2022-10-12T08:23:02;20.83;;;5.17;;
41887;SDS011;63122;52.424;13.458;2022-10-12T08:25:35;18.53;;;6.10;;
41887;SDS011;63122;52.424;13.458;2022-10-12T08:28:05;18.37;;;4.97;;
41887;SDS011;63122;52.424;13.458;2022-10-12T08:30:37;22.53;;;5.33;;
41887;SDS011;63122;52.424;13.458;2022-10-12T08:33:07;22.17;;;4.33;;
41887;SDS011;63122;52.424;13.458;2022-10-12T08:35:37;17.80;;;4.13;;
41887;SDS011;63122;52.424;13.458;2022-10-12T08:38:10;19.67;;;5.10;;
41887;SDS011;63122;52.424;13.458;2022-10-12T08:40:45;15.43;;;5.30;;
41887;SDS011;63122;52.424;13.458;2022-10-12T08:43:21;15.63;;;4.30;;
41887;SDS011;63122;52.424;13.458;2022-10-12T08:46:04;24.13;;;5.10;;
41887;SDS011;63122;52.424;13.458;2022-10-12T08:48:37;17.43;;;5.50;;
41887;SDS011;63122;52.424;13.458;2022-10-12T08:51:15;21.40;;;4.97;;
41887;SDS011;63122;52.424;13.458;2022-10-12T08:53:50;16.53;;;4.57;;
41887;SDS011;63122;52.424;13.458;2022-10-12T08:56:27;18.17;;;4.13;;
41887;SDS011;63122;52.424;13.458;2022-10-12T08:58:58;15.33;;;4.70;;
41887;SDS011;63122;52.424;13.458;2022-10-12T09:01:31;31.03;;;4.40;;
41887;SDS011;63122;52.424;13.458;2022-10-12T09:04:07;13.83;;;4.17;;
41887;SDS011;63122;52.424;13.458;2022-10-12T09:06:45;19.97;;;3.70;;
41887;SDS011;63122;52.424;13.458;2022-10-12T09:09:28;13.03;;;3.20;;
41887;SDS011;63122;52.424;13.458;2022-10-12T09:12:16;17.97;;;3.40;;
41887;SDS011;63122;52.424;13.458;2022-10-12T09:14:55;10.20;;;3.37;;
41887;SDS011;63122;52.424;13.458;2022-10-12T09:17:31;17.58;;;3.75;;
41887;SDS011;63122;52.424;13.458;2022-10-12T09:20:09;19.17;;;3.87;;
41887;SDS011;63122;52.424;13.458;2022-10-12T09:22:47;15.57;;;4.50;;
41887;SDS011;63122;52.424;13.458;2022-10-12T09:25:23;15.18;;;3.58;;
41887;SDS011;63122;52.424;13.458;2022-10-12T09:28:09;12.13;;;4.05;;
41887;SDS011;63122;52.424;13.458;2022-10-12T09:30:43;16.13;;;3.45;;
41887;SDS011;63122;52.424;13.458;2022-10-12T09:33:30;19.98;;;3.80;;
41887;SDS011;63122;52.424;13.458;2022-10-12T09:36:24;14.00;;;2.90;;
41887;SDS011;63122;52.424;13.458;2022-10-12T09:38:57;13.55;;;3.35;;
41887;SDS011;63122;52.424;13.458;2022-10-12T09:41:36;16.05;;;3.25;;
41887;SDS011;63122;52.424;13.458;2022-10-12T09:44:14;18.55;;;3.55;;
41887;SDS011;63122;52.424;13.458;2022-10-12T09:46:57;16.10;;;3.20;;
41887;SDS011;63122;52.424;13.458;2022-10-12T09:49:39;16.25;;;3.25;;
41887;SDS011;63122;52.424;13.458;2022-10-12T09:52:10;17.42;;;3.50;;
41887;SDS011;63122;52.424;13.458;2022-10-12T09:54:44;11.63;;;3.13;;
41887;SDS011;63122;52.424;13.458;2022-10-12T09:57:17;15.15;;;4.07;;
41887;SDS011;63122;52.424;13.458;2022-10-12T09:59:51;11.00;;;2.50;;
41887;SDS011;63122;52.424;13.458;2022-10-12T10:02:21;18.92;;;3.67;;
41887;SDS011;63122;52.424;13.458;2022-10-12T10:07:48;11.73;;;3.42;;
41887;SDS011;63122;52.424;13.458;2022-10-12T10:10:19;15.70;;;3.38;;
41887;SDS011;63122;52.424;13.458;2022-10-12T10:12:56;15.55;;;2.78;;
41887;SDS011;63122;52.424;13.458;2022-10-12T10:15:33;11.43;;;3.22;;
41887;SDS011;63122;52.424;13.458;2022-10-12T10:18:06;15.40;;;2.72;;
41887;SDS011;63122;52.424;13.458;2022-10-12T10:20:49;12.10;;;2.60;;
41887;SDS011;63122;52.424;13.458;2022-10-12T10:23:22;15.63;;;2.95;;
41887;SDS011;63122;52.424;13.458;2022-10-12T10:25:55;14.60;;;3.05;;
41887;SDS011;63122;52.424;13.458;2022-10-12T10:28:28;11.07;;;3.03;;
41887;SDS011;63122;52.424;13.458;2022-10-12T10:31:02;10.68;;;3.03;;
41887;SDS011;63122;52.424;13.458;2022-10-12T10:33:34;14.45;;;2.80;;
41887;SDS011;63122;52.424;13.458;2022-10-12T10:36:07;16.20;;;2.85;;
41887;SDS011;63122;52.424;13.458;2022-10-12T10:38:50;15.15;;;2.60;;
41887;SDS011;63122;52.424;13.458;2022-10-12T10:41:25;17.10;;;3.20;;
41887;SDS011;63122;52.424;13.458;2022-10-12T10:43:59;12.32;;;2.47;;
41887;SDS011;63122;52.424;13.458;2022-10-12T10:46:33;12.60;;;2.63;;
41887;SDS011;63122;52.424;13.458;2022-10-12T10:49:05;12.88;;;2.78;;
41887;SDS011;63122;52.424;13.458;2022-10-12T10:51:41;13.32;;;2.53;;
41887;SDS011;63122;52.424;13.458;2022-10-12T10:54:13;9.02;;;2.15;;
41887;SDS011;63122;52.424;13.458;2022-10-12T10:56:46;14.18;;;2.55;;
41887;SDS011;63122;52.424;13.458;2022-10-12T10:59:20;10.85;;;2.72;;
41887;SDS011;63122;52.424;13.458;2022-10-12T11:02:02;7.38;;;2.17;;
41887;SDS011;63122;52.424;13.458;2022-10-12T11:04:40;12.88;;;2.22;;
41887;SDS011;63122;52.424;13.458;2022-10-12T11:07:15;9.30;;;2.40;;
41887;SDS011;63122;52.424;13.458;2022-10-12T11:09:50;10.43;;;2.55;;
41887;SDS011;63122;52.424;13.458;2022-10-12T11:12:24;12.98;;;2.72;;
41887;SDS011;63122;52.424;13.458;2022-10-12T11:15:00;10.23;;;2.28;;
41887;SDS011;63122;52.424;13.458;2022-10-12T11:17:44;10.20;;;2.20;;
41887;SDS011;63122;52.424;13.458;2022-10-12T11:20:23;16.50;;;2.90;;
41887;SDS011;63122;52.424;13.458;2022-10-12T11:23:00;9.70;;;2.25;;
41887;SDS011;63122;52.424;13.458;2022-10-12T11:25:34;9.30;;;2.33;;
41887;SDS011;63122;52.424;13.458;2022-10-12T11:28:15;10.75;;;2.20;;
41887;SDS011;63122;52.424;13.458;2022-10-12T11:30:46;11.10;;;2.55;;
41887;SDS011;63122;52.424;13.458;2022-10-12T11:33:22;9.45;;;2.65;;
41887;SDS011;63122;52.424;13.458;2022-10-12T11:35:54;8.65;;;2.47;;
41887;SDS011;63122;52.424;13.458;2022-10-12T11:41:57;8.82;;;2.05;;
41887;SDS011;63122;52.424;13.458;2022-10-12T11:44:53;10.52;;;2.40;;
41887;SDS011;63122;52.424;13.458;2022-10-12T11:47:25;8.55;;;2.38;;
41887;SDS011;63122;52.424;13.458;2022-10-12T11:50:12;11.80;;;2.45;;
41887;SDS011;63122;52.424;13.458;2022-10-12T11:52:53;9.60;;;1.88;;
41887;SDS011;63122;52.424;13.458;2022-10-12T11:55:30;8.50;;;2.20;;
41887;SDS011;63122;52.424;13.458;2022-10-12T11:58:10;10.75;;;2.20;;
41887;SDS011;63122;52.424;13.458;2022-10-12T12:00:50;10.52;;;2.13;;
41887;SDS011;63122;52.424;13.458;2022-10-12T12:03:34;21.17;;;3.47;;
41887;SDS011;63122;52.424;13.458;2022-10-12T12:06:55;12.80;;;2.13;;
41887;SDS011;63122;52.424;13.458;2022-10-12T12:09:30;13.52;;;2.60;;
41887;SDS011;63122;52.424;13.458;2022-10-12T12:12:11;9.60;;;2.60;;
41887;SDS011;63122;52.424;13.458;2022-10-12T12:14:47;10.50;;;2.53;;
41887;SDS011;63122;52.424;13.458;2022-10-12T12:17:32;7.75;;;1.85;;
41887;SDS011;63122;52.424;13.458;2022-10-12T12:23:15;9.70;;;2.13;;
41887;SDS011;63122;52.424;13.458;2022-10-12T12:25:57;10.75;;;2.20;;
41887;SDS011;63122;52.424;13.458;2022-10-12T12:28:42;8.93;;;2.15;;
41887;SDS011;63122;52.424;13.458;2022-10-12T12:31:15;8.13;;;2.38;;
41887;SDS011;63122;52.424;13.458;2022-10-12T12:33:59;7.75;;;2.13;;
41887;SDS011;63122;52.424;13.458;2022-10-12T12:36:33;10.95;;;2.35;;
41887;SDS011;63122;52.424;13.458;2022-10-12T12:39:07;11.80;;;2.25;;
41887;SDS011;63122;52.424;13.458;2022-10-12T12:41:51;14.82;;;2.42;;
41887;SDS011;63122;52.424;13.458;2022-10-12T12:44:36;9.63;;;2.05;;
41887;SDS011;63122;52.424;13.458;2022-10-12T12:47:19;13.85;;;2.80;;
41887;SDS011;63122;52.424;13.458;2022-10-12T12:53:06;12.68;;;2.33;;
41887;SDS011;63122;52.424;13.458;2022-10-12T12:56:02;11.15;;;2.35;;
41887;SDS011;63122;52.424;13.458;2022-10-12T12:58:37;9.20;;;1.92;;
41887;SDS011;63122;52.424;13.458;2022-10-12T13:01:42;7.38;;;2.17;;
41887;SDS011;63122;52.424;13.458;2022-10-12T13:04:59;9.80;;;2.03;;
41887;SDS011;63122;52.424;13.458;2022-10-12T13:07:54;8.70;;;2.00;;
41887;SDS011;63122;52.424;13.458;2022-10-12T13:10:41;9.15;;;2.10;;
41887;SDS011;63122;52.424;13.458;2022-10-12T13:13:29;8.30;;;1.83;;
41887;SDS011;63122;52.424;13.458;2022-10-12T13:16:17;12.75;;;2.15;;
41887;SDS011;63122;52.424;13.458;2022-10-12T13:19:20;7.72;;;2.33;;
41887;SDS011;63122;52.424;13.458;2022-10-12T13:21:51;5.43;;;1.83;;
41887;SDS011;63122;52.424;13.458;2022-10-12T13:24:23;7.93;;;1.92;;
41887;SDS011;63122;52.424;13.458;2022-10-12T13:26:57;8.55;;;1.90;;
41887;SDS011;63122;52.424;13.458;2022-10-12T13:29:34;11.02;;;2.40;;
41887;SDS011;63122;52.424;13.458;2022-10-12T13:32:19;6.22;;;1.90;;
41887;SDS011;63122;52.424;13.458;2022-10-12T13:35:00;12.10;;;2.03;;
41887;SDS011;63122;52.424;13.458;2022-10-12T13:37:33;14.52;;;2.30;;
41887;SDS011;63122;52.424;13.458;2022-10-12T13:40:04;10.57;;;2.58;;
41887;SDS011;63122;52.424;13.458;2022-10-12T13:42:35;10.00;;;1.92;;
41887;SDS011;63122;52.424;13.458;2022-10-12T13:45:14;11.20;;;2.10;;
41887;SDS011;63122;52.424;13.458;2022-10-12T13:47:44;9.25;;;1.83;;
41887;SDS011;63122;52.424;13.458;2022-10-12T13:50:16;9.50;;;2.63;;
41887;SDS011;63122;52.424;13.458;2022-10-12T13:52:51;11.55;;;2.50;;
41887;SDS011;63122;52.424;13.458;2022-10-12T13:55:23;10.07;;;2.25;;
41887;SDS011;63122;52.424;13.458;2022-10-12T13:58:16;12.50;;;2.42;;
41887;SDS011;63122;52.424;13.458;2022-10-12T14:00:53;8.98;;;2.25;;
41887;SDS011;63122;52.424;13.458;2022-10-12T14:03:24;11.55;;;2.20;;
41887;SDS011;63122;52.424;13.458;2022-10-12T14:05:56;8.48;;;2.13;;
41887;SDS011;63122;52.424;13.458;2022-10-12T14:08:30;7.95;;;2.30;;
41887;SDS011;63122;52.424;13.458;2022-10-12T14:11:04;11.73;;;2.10;;
41887;SDS011;63122;52.424;13.458;2022-10-12T14:13:34;8.95;;;2.20;;
41887;SDS011;63122;52.424;13.458;2022-10-12T14:16:09;7.10;;;2.00;;
41887;SDS011;63122;52.424;13.458;2022-10-12T14:18:41;11.80;;;2.80;;
41887;SDS011;63122;52.424;13.458;2022-10-12T14:21:18;8.45;;;2.10;;
41887;SDS011;63122;52.424;13.458;2022-10-12T14:23:52;9.52;;;2.15;;
41887;SDS011;63122;52.424;13.458;2022-10-12T14:26:26;12.00;;;2.10;;
41887;SDS011;63122;52.424;13.458;2022-10-12T14:28:58;11.25;;;2.60;;
41887;SDS011;63122;52.424;13.458;2022-10-12T14:34:21;10.77;;;2.40;;
41887;SDS011;63122;52.424;13.458;2022-10-12T14:36:59;7.38;;;2.10;;
41887;SDS011;63122;52.424;13.458;2022-10-12T14:39:30;9.13;;;1.98;;
41887;SDS011;63122;52.424;13.458;2022-10-12T14:42:19;10.20;;;2.05;;
41887;SDS011;63122;52.424;13.458;2022-10-12T14:44:52;12.52;;;2.75;;
41887;SDS011;63122;52.424;13.458;2022-10-12T14:47:25;7.15;;;2.10;;
41887;SDS011;63122;52.424;13.458;2022-10-12T14:49:58;10.38;;;2.90;;
41887;SDS011;63122;52.424;13.458;2022-10-12T14:52:36;8.35;;;1.98;;
41887;SDS011;63122;52.424;13.458;2022-10-12T14:55:09;5.75;;;1.67;;
41887;SDS011;63122;52.424;13.458;2022-10-12T14:57:59;9.02;;;2.20;;
41887;SDS011;63122;52.424;13.458;2022-10-12T15:00:34;12.00;;;2.38;;
41887;SDS011;63122;52.424;13.458;2022-10-12T15:03:09;8.55;;;1.98;;
41887;SDS011;63122;52.424;13.458;2022-10-12T15:05:41;5.57;;;1.77;;
41887;SDS011;63122;52.424;13.458;2022-10-12T15:08:11;11.38;;;1.80;;
41887;SDS011;63122;52.424;13.458;2022-10-12T15:10:41;11.35;;;2.30;;
41887;SDS011;63122;52.424;13.458;2022-10-12T15:13:15;10.65;;;1.83;;
41887;SDS011;63122;52.424;13.458;2022-10-12T15:15:46;12.85;;;2.47;;
41887;SDS011;63122;52.424;13.458;2022-10-12T15:18:33;12.70;;;2.70;;
41887;SDS011;63122;52.424;13.458;2022-10-12T15:21:04;7.75;;;2.50;;
41887;SDS011;63122;52.424;13.458;2022-10-12T15:23:37;9.65;;;2.60;;
41887;SDS011;63122;52.424;13.458;2022-10-12T15:26:08;12.68;;;2.55;;
41887;SDS011;63122;52.424;13.458;2022-10-12T15:28:43;10.98;;;2.40;;
41887;SDS011;63122;52.424;13.458;2022-10-12T15:31:14;9.05;;;2.38;;
41887;SDS011;63122;52.424;13.458;2022-10-12T15:33:49;11.10;;;3.00;;